PWSweather.com
Personal Weather Stations
Station Observations
MBORO100
Brandywood , Murfreesboro, TN 37130

Brandywood Murfreesboro, TN 37130

Lat: 35.908093, Lon: -86.31352

Elevation: 690

Station Type: Davis

Latest ConditionsUpdated 3:35:00 AM CDT Monday, Aug 26, 2019
Currently Today's Max Today's Min Today's Average
Temperature 69.9°F21.1°C 71.4°F21.9°C 69.9°F21.1°C 70.4°F21.3°C
Dew Point 69.0°F20.6°C 70.2°F21.2°C 68.8°F20.4°C 69.3°F20.7°C
Winds Calm Calm Calm -Calm - - Calm Calm
Wind Gusts -- 1.2 mph1.9 kmh - -
Humidity 97% 97% 95% 96%
Pressure 29.93 in1013.5 mb 29.98 in1015.2 mb 29.93 in1013.5 mb -
Precipitation - 0.17 in4.3 mm - -
Hour Temp Dew Point Humidity Winds Wind Gusts Pressure Precip Precip Rate Daily Precip Total
03:35 AM 69.9°F21.1°C 69.0°F20.6°C 97% Calm Calm -- 29.93 in1013.5 mb - 0.01 in0.3 mm 0.17 in4.3 mm
03:30 AM 69.9°F21.1°C 69.0°F20.6°C 97% Calm Calm -- 29.93 in1013.5 mb - 0.01 in0.3 mm 0.17 in4.3 mm
03:25 AM 70.0°F21.1°C 69.1°F20.6°C 97% Calm Calm -- 29.93 in1013.5 mb - 0.01 in0.3 mm 0.17 in4.3 mm
03:20 AM 69.9°F21.1°C 69.0°F20.6°C 97% Calm Calm -- 29.93 in1013.5 mb - 0.01 in0.3 mm 0.17 in4.3 mm
03:15 AM 70.0°F21.1°C 69.1°F20.6°C 97% Calm Calm -- 29.93 in1013.5 mb - 0.01 in0.3 mm 0.17 in4.3 mm
03:10 AM 70.0°F21.1°C 69.1°F20.6°C 97% Calm Calm -- 29.93 in1013.5 mb - 0.01 in0.3 mm 0.17 in4.3 mm
03:00 AM 70.0°F21.1°C 69.1°F20.6°C 97% Calm Calm -- 29.93 in1013.5 mb - 0.00 in0.0 mm 0.16 in4.1 mm
02:55 AM 70.0°F21.1°C 68.8°F20.4°C 96% Calm Calm 1.2 mph1.9 kmh 29.93 in1013.5 mb - 0.01 in0.3 mm 0.16 in4.1 mm
02:50 AM 70.0°F21.1°C 68.8°F20.4°C 96% Calm Calm -- 29.93 in1013.5 mb - 0.01 in0.3 mm 0.16 in4.1 mm
02:45 AM 70.1°F21.2°C 68.9°F20.5°C 96% Calm Calm -- 29.93 in1013.5 mb - 0.01 in0.3 mm 0.16 in4.1 mm
02:40 AM 70.1°F21.2°C 68.9°F20.5°C 96% Calm Calm -- 29.93 in1013.5 mb - 0.01 in0.3 mm 0.16 in4.1 mm
02:35 AM 70.1°F21.2°C 68.9°F20.5°C 96% Calm Calm -- 29.93 in1013.5 mb - 0.01 in0.3 mm 0.16 in4.1 mm
02:30 AM 70.1°F21.2°C 68.9°F20.5°C 96% Calm Calm -- 29.93 in1013.5 mb - 0.01 in0.3 mm 0.16 in4.1 mm
02:20 AM 70.2°F21.2°C 69.0°F20.6°C 96% Calm Calm -- 29.93 in1013.5 mb - 0.02 in0.5 mm 0.16 in4.1 mm
02:15 AM 70.2°F21.2°C 69.0°F20.6°C 96% Calm Calm -- 29.93 in1013.5 mb - 0.02 in0.5 mm 0.16 in4.1 mm
02:10 AM 70.2°F21.2°C 69.0°F20.6°C 96% Calm Calm -- 29.94 in1013.9 mb - 0.02 in0.5 mm 0.16 in4.1 mm
02:00 AM 70.3°F21.3°C 69.1°F20.6°C 96% Calm Calm -- 29.94 in1013.9 mb - 0.03 in0.8 mm 0.16 in4.1 mm
01:55 AM 70.3°F21.3°C 69.1°F20.6°C 96% Calm Calm -- 29.94 in1013.9 mb - 0.03 in0.8 mm 0.15 in3.8 mm
01:50 AM 70.3°F21.3°C 69.1°F20.6°C 96% Calm Calm -- 29.94 in1013.9 mb - 0.04 in1.0 mm 0.15 in3.8 mm
01:45 AM 70.4°F21.3°C 69.2°F20.7°C 96% Calm Calm -- 29.95 in1014.2 mb - 0.06 in1.5 mm 0.15 in3.8 mm
01:40 AM 70.4°F21.3°C 69.2°F20.7°C 96% Calm Calm -- 29.95 in1014.2 mb - 0.08 in2.0 mm 0.15 in3.8 mm
01:35 AM 70.4°F21.3°C 69.2°F20.7°C 96% Calm Calm -- 29.95 in1014.2 mb - 0.10 in2.5 mm 0.15 in3.8 mm
01:30 AM 70.4°F21.3°C 69.2°F20.7°C 96% Calm Calm -- 29.95 in1014.2 mb - 0.11 in2.8 mm 0.15 in3.8 mm
01:25 AM 70.5°F21.4°C 69.3°F20.7°C 96% Calm Calm -- 29.96 in1014.6 mb - 0.12 in3.0 mm 0.15 in3.8 mm
01:20 AM 70.5°F21.4°C 69.3°F20.7°C 96% Calm Calm -- 29.96 in1014.6 mb - 0.13 in3.3 mm 0.15 in3.8 mm
01:15 AM 70.5°F21.4°C 69.3°F20.7°C 96% Calm Calm -- 29.96 in1014.6 mb - 0.13 in3.3 mm 0.14 in3.6 mm
01:10 AM 70.5°F21.4°C 69.3°F20.7°C 96% Calm Calm -- 29.96 in1014.6 mb - 0.13 in3.3 mm 0.14 in3.6 mm
01:00 AM 70.6°F21.4°C 69.4°F20.8°C 96% Calm Calm -- 29.96 in1014.6 mb - 0.13 in3.3 mm 0.13 in3.3 mm
12:55 AM 70.7°F21.5°C 69.5°F20.8°C 96% Calm Calm -- 29.96 in1014.6 mb - 0.13 in3.3 mm 0.12 in3.0 mm
12:50 AM 70.7°F21.5°C 69.5°F20.8°C 96% Calm Calm -- 29.96 in1014.6 mb - 0.17 in4.3 mm 0.11 in2.8 mm
12:45 AM 70.8°F21.6°C 69.6°F20.9°C 96% Calm Calm -- 29.96 in1014.6 mb - 0.16 in4.1 mm 0.10 in2.5 mm
12:40 AM 70.8°F21.6°C 69.6°F20.9°C 96% Calm Calm -- 29.97 in1014.9 mb - 0.13 in3.3 mm 0.07 in1.8 mm
12:35 AM 70.9°F21.6°C 69.7°F20.9°C 96% Calm Calm -- 29.97 in1014.9 mb - 0.11 in2.8 mm 0.05 in1.3 mm
12:30 AM 71.0°F21.7°C 69.8°F21.0°C 96% Calm Calm -- 29.97 in1014.9 mb - 0.10 in2.5 mm 0.04 in1.0 mm
12:25 AM 71.0°F21.7°C 69.8°F21.0°C 96% Calm Calm -- 29.97 in1014.9 mb - 0.09 in2.3 mm 0.03 in0.8 mm
12:20 AM 71.1°F21.7°C 69.9°F21.1°C 96% Calm Calm -- 29.98 in1015.2 mb - 0.08 in2.0 mm 0.02 in0.5 mm
12:15 AM 71.1°F21.7°C 69.9°F21.1°C 96% Calm Calm -- 29.98 in1015.2 mb - 0.08 in2.0 mm 0.02 in0.5 mm
12:10 AM 71.2°F21.8°C 69.7°F20.9°C 95% Calm Calm -- 29.97 in1014.9 mb - 0.07 in1.8 mm 0.01 in0.3 mm
12:00 AM 71.4°F21.9°C 70.2°F21.2°C 96% Calm Calm -- 29.97 in1014.9 mb - 0.06 in1.5 mm 0.06 in1.5 mm